sensor_id;sensor_type;location;lat;lon;timestamp;pressure;altitude;pressure_sealevel;temperature;humidity
62694;BME280;48759;52.544;13.418;2023-03-16T00:00:07;101406.69;;;10.00;54.32
62694;BME280;48759;52.544;13.418;2023-03-16T00:02:38;101407.31;;;9.64;53.89
62694;BME280;48759;52.544;13.418;2023-03-16T00:05:06;101408.75;;;8.67;56.33
62694;BME280;48759;52.544;13.418;2023-03-16T00:07:33;101410.75;;;9.66;55.65
62694;BME280;48759;52.544;13.418;2023-03-16T00:10:00;101414.19;;;9.45;55.00
62694;BME280;48759;52.544;13.418;2023-03-16T00:12:29;101418.50;;;10.23;54.54
62694;BME280;48759;52.544;13.418;2023-03-16T00:14:59;101414.59;;;9.57;54.66
62694;BME280;48759;52.544;13.418;2023-03-16T00:17:26;101410.88;;;9.50;55.64
62694;BME280;48759;52.544;13.418;2023-03-16T00:20:09;101415.88;;;10.73;52.40
62694;BME280;48759;52.544;13.418;2023-03-16T00:22:36;101414.47;;;10.11;53.59
62694;BME280;48759;52.544;13.418;2023-03-16T00:25:03;101408.41;;;9.78;53.96
62694;BME280;48759;52.544;13.418;2023-03-16T00:27:31;101414.13;;;10.43;52.34
62694;BME280;48759;52.544;13.418;2023-03-16T00:29:58;101418.06;;;9.96;53.07
62694;BME280;48759;52.544;13.418;2023-03-16T00:32:29;101420.56;;;8.68;54.52
62694;BME280;48759;52.544;13.418;2023-03-16T00:34:57;101421.13;;;9.56;54.46
62694;BME280;48759;52.544;13.418;2023-03-16T00:37:24;101423.81;;;9.64;53.46
62694;BME280;48759;52.544;13.418;2023-03-16T00:39:52;101428.09;;;9.89;53.60
62694;BME280;48759;52.544;13.418;2023-03-16T00:42:21;101420.66;;;9.75;53.28
62694;BME280;48759;52.544;13.418;2023-03-16T00:44:52;101416.72;;;8.85;53.64
62694;BME280;48759;52.544;13.418;2023-03-16T00:47:23;101419.59;;;8.92;55.18
62694;BME280;48759;52.544;13.418;2023-03-16T00:49:50;101431.47;;;8.84;55.96
62694;BME280;48759;52.544;13.418;2023-03-16T00:52:16;101423.56;;;8.42;56.38
62694;BME280;48759;52.544;13.418;2023-03-16T00:54:45;101430.75;;;8.98;53.90
62694;BME280;48759;52.544;13.418;2023-03-16T00:57:14;101424.78;;;9.17;54.31
62694;BME280;48759;52.544;13.418;2023-03-16T00:59:43;101428.84;;;9.30;52.83
62694;BME280;48759;52.544;13.418;2023-03-16T01:02:11;101425.53;;;9.65;51.90
62694;BME280;48759;52.544;13.418;2023-03-16T01:04:38;101437.41;;;9.35;52.74
62694;BME280;48759;52.544;13.418;2023-03-16T01:07:05;101437.38;;;9.43;52.69
62694;BME280;48759;52.544;13.418;2023-03-16T01:09:33;101440.97;;;9.89;52.16
62694;BME280;48759;52.544;13.418;2023-03-16T01:12:01;101439.94;;;9.44;52.68
62694;BME280;48759;52.544;13.418;2023-03-16T01:14:30;101439.75;;;10.29;50.97
62694;BME280;48759;52.544;13.418;2023-03-16T01:16:57;101432.19;;;10.46;49.73
62694;BME280;48759;52.544;13.418;2023-03-16T01:19:25;101434.06;;;9.16;51.40
62694;BME280;48759;52.544;13.418;2023-03-16T01:21:51;101437.03;;;9.46;51.44
62694;BME280;48759;52.544;13.418;2023-03-16T01:24:18;101440.00;;;9.28;50.98
62694;BME280;48759;52.544;13.418;2023-03-16T01:26:45;101434.00;;;9.25;51.71
62694;BME280;48759;52.544;13.418;2023-03-16T01:29:11;101431.88;;;9.43;51.38
62694;BME280;48759;52.544;13.418;2023-03-16T01:31:39;101435.66;;;9.42;51.12
62694;BME280;48759;52.544;13.418;2023-03-16T01:34:05;101425.75;;;9.78;50.51
62694;BME280;48759;52.544;13.418;2023-03-16T01:36:33;101424.84;;;9.09;50.75
62694;BME280;48759;52.544;13.418;2023-03-16T01:39:00;101431.88;;;9.43;51.09
62694;BME280;48759;52.544;13.418;2023-03-16T01:41:26;101433.97;;;9.64;50.18
62694;BME280;48759;52.544;13.418;2023-03-16T01:43:53;101432.59;;;9.37;51.04
62694;BME280;48759;52.544;13.418;2023-03-16T01:46:24;101426.09;;;9.30;51.21
62694;BME280;48759;52.544;13.418;2023-03-16T01:48:55;101421.13;;;9.56;50.67
62694;BME280;48759;52.544;13.418;2023-03-16T01:51:27;101432.84;;;8.33;51.45
62694;BME280;48759;52.544;13.418;2023-03-16T01:53:59;101436.09;;;8.83;51.50
62694;BME280;48759;52.544;13.418;2023-03-16T01:56:31;101432.69;;;8.81;52.01
62694;BME280;48759;52.544;13.418;2023-03-16T01:59:01;101432.22;;;9.40;50.50
62694;BME280;48759;52.544;13.418;2023-03-16T02:01:31;101430.69;;;9.68;49.94
62694;BME280;48759;52.544;13.418;2023-03-16T02:04:03;101432.06;;;9.64;49.67
62694;BME280;48759;52.544;13.418;2023-03-16T02:06:32;101422.91;;;9.18;50.25
62694;BME280;48759;52.544;13.418;2023-03-16T02:09:01;101435.03;;;9.54;50.20
62694;BME280;48759;52.544;13.418;2023-03-16T02:11:29;101419.97;;;9.50;50.13
62694;BME280;48759;52.544;13.418;2023-03-16T02:13:57;101422.16;;;9.24;49.95
62694;BME280;48759;52.544;13.418;2023-03-16T02:16:27;101412.81;;;8.79;50.12
62694;BME280;48759;52.544;13.418;2023-03-16T02:18:54;101423.50;;;9.05;50.43
62694;BME280;48759;52.544;13.418;2023-03-16T02:21:27;101423.41;;;9.21;49.52
62694;BME280;48759;52.544;13.418;2023-03-16T02:23:58;101424.06;;;11.54;46.29
62694;BME280;48759;52.544;13.418;2023-03-16T02:26:33;101415.22;;;11.22;45.83
62694;BME280;48759;52.544;13.418;2023-03-16T02:29:11;101422.66;;;11.58;45.70
62694;BME280;48759;52.544;13.418;2023-03-16T02:31:40;101428.34;;;11.20;45.76
62694;BME280;48759;52.544;13.418;2023-03-16T02:34:08;101429.84;;;11.59;44.95
62694;BME280;48759;52.544;13.418;2023-03-16T02:36:35;101424.53;;;11.57;44.81
62694;BME280;48759;52.544;13.418;2023-03-16T02:39:03;101421.41;;;12.31;43.56
62694;BME280;48759;52.544;13.418;2023-03-16T02:41:30;101426.31;;;12.35;43.10
62694;BME280;48759;52.544;13.418;2023-03-16T02:44:01;101427.94;;;11.59;43.71
62694;BME280;48759;52.544;13.418;2023-03-16T02:46:30;101429.09;;;11.86;43.54
62694;BME280;48759;52.544;13.418;2023-03-16T02:49:05;101427.25;;;11.36;43.82
62694;BME280;48759;52.544;13.418;2023-03-16T02:51:33;101433.97;;;11.63;44.23
62694;BME280;48759;52.544;13.418;2023-03-16T02:54:00;101439.38;;;11.56;43.76
62694;BME280;48759;52.544;13.418;2023-03-16T02:56:26;101433.16;;;11.69;43.84
62694;BME280;48759;52.544;13.418;2023-03-16T02:58:53;101429.72;;;11.09;44.44
62694;BME280;48759;52.544;13.418;2023-03-16T03:01:21;101436.75;;;12.40;42.64
62694;BME280;48759;52.544;13.418;2023-03-16T03:03:48;101431.53;;;12.23;42.79
62694;BME280;48759;52.544;13.418;2023-03-16T03:06:16;101441.28;;;11.98;43.03
62694;BME280;48759;52.544;13.418;2023-03-16T03:08:42;101440.47;;;11.40;43.42
62694;BME280;48759;52.544;13.418;2023-03-16T03:11:09;101447.03;;;11.97;43.31
62694;BME280;48759;52.544;13.418;2023-03-16T03:13:36;101442.75;;;11.94;43.11
62694;BME280;48759;52.544;13.418;2023-03-16T03:16:03;101442.47;;;10.66;44.81
62694;BME280;48759;52.544;13.418;2023-03-16T03:18:30;101447.53;;;11.28;44.39
62694;BME280;48759;52.544;13.418;2023-03-16T03:20:58;101449.72;;;11.54;44.01
62694;BME280;48759;52.544;13.418;2023-03-16T03:23:26;101456.91;;;11.48;43.66
62694;BME280;48759;52.544;13.418;2023-03-16T03:25:56;101453.44;;;11.25;43.75
62694;BME280;48759;52.544;13.418;2023-03-16T03:28:23;101452.31;;;11.05;44.12
62694;BME280;48759;52.544;13.418;2023-03-16T03:30:50;101456.44;;;11.81;43.15
62694;BME280;48759;52.544;13.418;2023-03-16T03:33:16;101463.72;;;10.72;44.45
62694;BME280;48759;52.544;13.418;2023-03-16T03:35:44;101461.66;;;10.74;44.48
62694;BME280;48759;52.544;13.418;2023-03-16T03:38:10;101465.81;;;11.00;44.61
62694;BME280;48759;52.544;13.418;2023-03-16T03:40:38;101460.38;;;11.21;44.08
62694;BME280;48759;52.544;13.418;2023-03-16T03:43:05;101458.72;;;11.41;43.24
62694;BME280;48759;52.544;13.418;2023-03-16T03:45:31;101454.03;;;9.87;45.36
62694;BME280;48759;52.544;13.418;2023-03-16T03:47:58;101452.63;;;10.66;44.76
62694;BME280;48759;52.544;13.418;2023-03-16T03:50:24;101455.28;;;10.89;44.44
62694;BME280;48759;52.544;13.418;2023-03-16T03:52:51;101456.56;;;11.22;43.90
62694;BME280;48759;52.544;13.418;2023-03-16T03:55:18;101461.91;;;11.24;43.76
62694;BME280;48759;52.544;13.418;2023-03-16T03:57:46;101467.34;;;10.21;44.22
62694;BME280;48759;52.544;13.418;2023-03-16T04:00:13;101461.44;;;9.86;46.25
62694;BME280;48759;52.544;13.418;2023-03-16T04:02:40;101456.31;;;11.17;44.09
62694;BME280;48759;52.544;13.418;2023-03-16T04:05:07;101456.75;;;10.32;44.88
62694;BME280;48759;52.544;13.418;2023-03-16T04:07:35;101456.50;;;9.59;45.89
62694;BME280;48759;52.544;13.418;2023-03-16T04:10:01;101461.41;;;10.09;45.41
62694;BME280;48759;52.544;13.418;2023-03-16T04:12:28;101463.84;;;10.27;45.57
62694;BME280;48759;52.544;13.418;2023-03-16T04:14:56;101457.44;;;10.12;45.00
62694;BME280;48759;52.544;13.418;2023-03-16T04:17:23;101455.69;;;10.71;44.82
62694;BME280;48759;52.544;13.418;2023-03-16T04:19:49;101464.53;;;8.99;47.18
62694;BME280;48759;52.544;13.418;2023-03-16T04:22:16;101457.44;;;10.12;45.48
62694;BME280;48759;52.544;13.418;2023-03-16T04:24:43;101461.59;;;10.45;44.99
62694;BME280;48759;52.544;13.418;2023-03-16T04:27:10;101453.06;;;10.40;44.71
62694;BME280;48759;52.544;13.418;2023-03-16T04:29:36;101457.97;;;10.30;44.96
62694;BME280;48759;52.544;13.418;2023-03-16T04:32:06;101461.59;;;10.45;44.99
62694;BME280;48759;52.544;13.418;2023-03-16T04:34:33;101458.50;;;9.88;45.44
62694;BME280;48759;52.544;13.418;2023-03-16T04:37:00;101456.00;;;9.55;46.01
62694;BME280;48759;52.544;13.418;2023-03-16T04:39:27;101455.50;;;9.97;45.95
62694;BME280;48759;52.544;13.418;2023-03-16T04:41:54;101464.03;;;10.92;44.41
62694;BME280;48759;52.544;13.418;2023-03-16T04:44:20;101456.63;;;10.26;45.71
62694;BME280;48759;52.544;13.418;2023-03-16T04:46:47;101469.00;;;10.07;45.59
62694;BME280;48759;52.544;13.418;2023-03-16T04:49:15;101470.38;;;10.26;45.82
62694;BME280;48759;52.544;13.418;2023-03-16T04:51:41;101468.50;;;10.79;44.12
62694;BME280;48759;52.544;13.418;2023-03-16T04:54:09;101472.50;;;10.39;44.65
62694;BME280;48759;52.544;13.418;2023-03-16T04:56:36;101458.13;;;10.14;44.85
62694;BME280;48759;52.544;13.418;2023-03-16T04:59:05;101465.75;;;10.41;44.71
62694;BME280;48759;52.544;13.418;2023-03-16T05:01:32;101474.47;;;11.47;43.06
62694;BME280;48759;52.544;13.418;2023-03-16T05:03:58;101472.06;;;11.23;43.27
62694;BME280;48759;52.544;13.418;2023-03-16T05:06:28;101468.09;;;10.67;43.74
62694;BME280;48759;52.544;13.418;2023-03-16T05:08:58;101477.94;;;9.64;44.54
62694;BME280;48759;52.544;13.418;2023-03-16T05:11:25;101476.84;;;9.95;44.79
62694;BME280;48759;52.544;13.418;2023-03-16T05:13:51;101484.06;;;10.49;44.13
62694;BME280;48759;52.544;13.418;2023-03-16T05:16:18;101484.16;;;10.63;44.07
62694;BME280;48759;52.544;13.418;2023-03-16T05:18:44;101478.34;;;10.21;45.02
62694;BME280;48759;52.544;13.418;2023-03-16T05:21:11;101477.13;;;10.23;44.37
62694;BME280;48759;52.544;13.418;2023-03-16T05:23:39;101479.78;;;10.69;43.52
62694;BME280;48759;52.544;13.418;2023-03-16T05:26:06;101478.25;;;10.14;44.71
62694;BME280;48759;52.544;13.418;2023-03-16T05:28:33;101474.47;;;9.70;45.68
62694;BME280;48759;52.544;13.418;2023-03-16T05:30:59;101491.66;;;9.64;45.85
62694;BME280;48759;52.544;13.418;2023-03-16T05:33:27;101483.50;;;9.78;45.67
62694;BME280;48759;52.544;13.418;2023-03-16T05:35:54;101483.31;;;10.03;45.06
62694;BME280;48759;52.544;13.418;2023-03-16T05:38:22;101488.44;;;10.06;45.31
62694;BME280;48759;52.544;13.418;2023-03-16T05:40:50;101489.09;;;8.92;47.53
62694;BME280;48759;52.544;13.418;2023-03-16T05:43:17;101492.59;;;10.02;45.77
62694;BME280;48759;52.544;13.418;2023-03-16T05:45:44;101498.94;;;9.79;45.73
62694;BME280;48759;52.544;13.418;2023-03-16T05:48:11;101501.03;;;9.07;46.64
62694;BME280;48759;52.544;13.418;2023-03-16T05:50:39;101511.19;;;11.84;43.71
62694;BME280;48759;52.544;13.418;2023-03-16T05:53:05;101505.22;;;11.15;43.12
62694;BME280;48759;52.544;13.418;2023-03-16T05:55:33;101499.56;;;9.89;45.14
62694;BME280;48759;52.544;13.418;2023-03-16T05:58:01;101501.59;;;9.34;45.84
62694;BME280;48759;52.544;13.418;2023-03-16T06:00:28;101515.38;;;9.65;45.84
62694;BME280;48759;52.544;13.418;2023-03-16T06:02:54;101506.75;;;10.36;45.06
62694;BME280;48759;52.544;13.418;2023-03-16T06:05:21;101516.97;;;10.65;44.79
62694;BME280;48759;52.544;13.418;2023-03-16T06:07:49;101512.91;;;10.76;43.83
62694;BME280;48759;52.544;13.418;2023-03-16T06:10:17;101519.97;;;9.95;45.67
62694;BME280;48759;52.544;13.418;2023-03-16T06:12:44;101524.00;;;10.67;51.29
62694;BME280;48759;52.544;13.418;2023-03-16T06:15:12;101514.63;;;10.77;44.89
62694;BME280;48759;52.544;13.418;2023-03-16T06:17:39;101513.09;;;10.89;43.97
62694;BME280;48759;52.544;13.418;2023-03-16T06:20:08;101516.84;;;11.10;43.74
62694;BME280;48759;52.544;13.418;2023-03-16T06:22:36;101521.09;;;11.13;43.60
62694;BME280;48759;52.544;13.418;2023-03-16T06:25:04;101515.81;;;11.47;42.80
62694;BME280;48759;52.544;13.418;2023-03-16T06:27:30;101523.38;;;11.09;43.36
62694;BME280;48759;52.544;13.418;2023-03-16T06:29:57;101511.72;;;11.43;42.54
62694;BME280;48759;52.544;13.418;2023-03-16T06:32:25;101532.44;;;11.69;42.09
62694;BME280;48759;52.544;13.418;2023-03-16T06:34:52;101538.34;;;11.66;41.24
62694;BME280;48759;52.544;13.418;2023-03-16T06:37:18;101533.13;;;10.68;42.79
62694;BME280;48759;52.544;13.418;2023-03-16T06:39:46;101537.34;;;11.59;42.12
62694;BME280;48759;52.544;13.418;2023-03-16T06:42:12;101529.56;;;11.77;41.42
62694;BME280;48759;52.544;13.418;2023-03-16T06:44:39;101536.06;;;11.55;41.43
62694;BME280;48759;52.544;13.418;2023-03-16T06:47:06;101542.59;;;12.04;40.91
62694;BME280;48759;52.544;13.418;2023-03-16T06:49:34;101545.25;;;11.11;41.88
62694;BME280;48759;52.544;13.418;2023-03-16T06:52:00;101554.03;;;11.36;41.61
62694;BME280;48759;52.544;13.418;2023-03-16T06:54:27;101560.78;;;11.04;41.42
62694;BME280;48759;52.544;13.418;2023-03-16T06:56:56;101556.38;;;10.65;42.60
62694;BME280;48759;52.544;13.418;2023-03-16T06:59:23;101553.06;;;10.55;42.00
62694;BME280;48759;52.544;13.418;2023-03-16T07:01:50;101556.88;;;10.46;42.58
62694;BME280;48759;52.544;13.418;2023-03-16T07:04:16;101560.66;;;9.46;43.51
62694;BME280;48759;52.544;13.418;2023-03-16T07:06:44;101559.69;;;10.61;42.38
62694;BME280;48759;52.544;13.418;2023-03-16T07:09:11;101568.69;;;11.07;41.44
62694;BME280;48759;52.544;13.418;2023-03-16T07:11:38;101568.13;;;11.26;41.23
62694;BME280;48759;52.544;13.418;2023-03-16T07:14:04;101577.44;;;10.13;43.14
62694;BME280;48759;52.544;13.418;2023-03-16T07:16:31;101577.34;;;11.33;41.86
62694;BME280;48759;52.544;13.418;2023-03-16T07:18:57;101578.41;;;10.65;42.19
62694;BME280;48759;52.544;13.418;2023-03-16T07:21:24;101584.19;;;11.23;41.46
62694;BME280;48759;52.544;13.418;2023-03-16T07:23:52;101580.63;;;10.47;41.75
62694;BME280;48759;52.544;13.418;2023-03-16T07:26:20;101586.94;;;11.23;40.40
62694;BME280;48759;52.544;13.418;2023-03-16T07:28:47;101581.28;;;11.75;40.03
62694;BME280;48759;52.544;13.418;2023-03-16T07:31:13;101587.75;;;11.52;40.05
62694;BME280;48759;52.544;13.418;2023-03-16T07:33:40;101592.53;;;11.29;40.12
62694;BME280;48759;52.544;13.418;2023-03-16T07:36:07;101594.69;;;10.07;41.58
62694;BME280;48759;52.544;13.418;2023-03-16T07:38:34;101594.84;;;11.26;39.35
62694;BME280;48759;52.544;13.418;2023-03-16T07:41:03;101599.00;;;11.07;39.73
62694;BME280;48759;52.544;13.418;2023-03-16T07:43:29;101602.75;;;11.94;38.84
62694;BME280;48759;52.544;13.418;2023-03-16T07:45:56;101596.22;;;12.16;38.59
62694;BME280;48759;52.544;13.418;2023-03-16T07:48:23;101590.31;;;12.19;38.54
62694;BME280;48759;52.544;13.418;2023-03-16T07:50:50;101593.66;;;12.79;37.62
62694;BME280;48759;52.544;13.418;2023-03-16T07:53:17;101588.53;;;12.12;38.46
62694;BME280;48759;52.544;13.418;2023-03-16T07:55:43;101602.06;;;11.41;39.30
62694;BME280;48759;52.544;13.418;2023-03-16T07:58:12;101605.13;;;12.61;37.54
62694;BME280;48759;52.544;13.418;2023-03-16T08:00:39;101595.41;;;12.22;38.10
62694;BME280;48759;52.544;13.418;2023-03-16T08:03:07;101603.13;;;12.27;37.83
62694;BME280;48759;52.544;13.418;2023-03-16T08:05:33;101601.47;;;11.61;37.91
62694;BME280;48759;52.544;13.418;2023-03-16T08:08:00;101608.69;;;11.32;38.72
62694;BME280;48759;52.544;13.418;2023-03-16T08:10:27;101613.06;;;12.07;37.67
62694;BME280;48759;52.544;13.418;2023-03-16T08:12:53;101605.50;;;13.00;36.58
62694;BME280;48759;52.544;13.418;2023-03-16T08:15:21;101614.38;;;13.24;36.58
62694;BME280;48759;52.544;13.418;2023-03-16T08:17:49;101607.47;;;12.36;36.40
62694;BME280;48759;52.544;13.418;2023-03-16T08:20:16;101605.97;;;13.04;36.20
62694;BME280;48759;52.544;13.418;2023-03-16T08:22:43;101613.72;;;13.15;35.73
62694;BME280;48759;52.544;13.418;2023-03-16T08:25:11;101603.25;;;12.61;36.42
62694;BME280;48759;52.544;13.418;2023-03-16T08:27:38;101609.38;;;12.57;37.20
62694;BME280;48759;52.544;13.418;2023-03-16T08:30:07;101612.25;;;12.49;37.42
62694;BME280;48759;52.544;13.418;2023-03-16T08:32:37;101604.91;;;12.35;37.44
62694;BME280;48759;52.544;13.418;2023-03-16T08:35:05;101608.56;;;12.84;36.93
62694;BME280;48759;52.544;13.418;2023-03-16T08:37:32;101616.94;;;13.53;35.78
62694;BME280;48759;52.544;13.418;2023-03-16T08:39:59;101610.69;;;12.40;36.91
62694;BME280;48759;52.544;13.418;2023-03-16T08:42:26;101619.78;;;12.76;36.72
62694;BME280;48759;52.544;13.418;2023-03-16T08:44:54;101614.91;;;12.78;36.16
62694;BME280;48759;52.544;13.418;2023-03-16T08:47:21;101614.22;;;12.34;36.80
62694;BME280;48759;52.544;13.418;2023-03-16T08:49:49;101621.56;;;12.84;36.39
62694;BME280;48759;52.544;13.418;2023-03-16T08:52:16;101624.66;;;13.02;35.98
62694;BME280;48759;52.544;13.418;2023-03-16T08:54:43;101620.19;;;12.73;35.40
62694;BME280;48759;52.544;13.418;2023-03-16T08:57:10;101633.25;;;13.14;35.52
62694;BME280;48759;52.544;13.418;2023-03-16T08:59:36;101632.06;;;11.95;36.76
62694;BME280;48759;52.544;13.418;2023-03-16T09:02:03;101624.31;;;12.62;36.18
62694;BME280;48759;52.544;13.418;2023-03-16T09:04:30;101634.22;;;12.78;36.16
62694;BME280;48759;52.544;13.418;2023-03-16T09:06:58;101631.31;;;12.86;35.70
62694;BME280;48759;52.544;13.418;2023-03-16T09:09:24;101630.94;;;12.47;35.72
62694;BME280;48759;52.544;13.418;2023-03-16T09:11:51;101630.91;;;12.04;36.37
62694;BME280;48759;52.544;13.418;2023-03-16T09:14:18;101637.88;;;12.21;36.07
62694;BME280;48759;52.544;13.418;2023-03-16T09:16:44;101635.50;;;12.18;36.33
62694;BME280;48759;52.544;13.418;2023-03-16T09:19:12;101637.31;;;12.90;35.43
62694;BME280;48759;52.544;13.418;2023-03-16T09:21:39;101638.94;;;13.40;34.61
62694;BME280;48759;52.544;13.418;2023-03-16T09:24:07;101637.69;;;13.42;33.88
62694;BME280;48759;52.544;13.418;2023-03-16T09:26:34;101629.00;;;13.80;33.68
62694;BME280;48759;52.544;13.418;2023-03-16T09:29:02;101642.50;;;12.57;34.10
62694;BME280;48759;52.544;13.418;2023-03-16T09:31:31;101645.34;;;12.42;34.56
62694;BME280;48759;52.544;13.418;2023-03-16T09:33:58;101646.06;;;13.56;33.20
62694;BME280;48759;52.544;13.418;2023-03-16T09:36:25;101653.38;;;13.63;32.87
62694;BME280;48759;52.544;13.418;2023-03-16T09:38:52;101653.31;;;13.22;33.55
62694;BME280;48759;52.544;13.418;2023-03-16T09:41:31;101652.31;;;13.64;32.68
62694;BME280;48759;52.544;13.418;2023-03-16T09:44:09;101647.34;;;13.53;32.43
62694;BME280;48759;52.544;13.418;2023-03-16T09:46:43;101641.88;;;14.01;31.69
62694;BME280;48759;52.544;13.418;2023-03-16T09:49:11;101652.09;;;13.59;32.54
62694;BME280;48759;52.544;13.418;2023-03-16T09:51:43;101642.94;;;14.87;31.33
62694;BME280;48759;52.544;13.418;2023-03-16T09:54:21;101647.09;;;13.48;32.52
62694;BME280;48759;52.544;13.418;2023-03-16T09:56:52;101649.47;;;13.86;32.37
62694;BME280;48759;52.544;13.418;2023-03-16T09:59:20;101648.59;;;14.39;31.33
62694;BME280;48759;52.544;13.418;2023-03-16T10:02:04;101657.75;;;14.33;31.27
62694;BME280;48759;52.544;13.418;2023-03-16T10:04:49;101645.50;;;14.95;30.47
62694;BME280;48759;52.544;13.418;2023-03-16T10:07:26;101648.47;;;15.00;30.47
62694;BME280;48759;52.544;13.418;2023-03-16T10:09:56;101644.22;;;15.04;30.02
62694;BME280;48759;52.544;13.418;2023-03-16T10:12:30;101651.41;;;14.52;30.77
62694;BME280;48759;52.544;13.418;2023-03-16T10:15:03;101648.03;;;14.77;30.47
62694;BME280;48759;52.544;13.418;2023-03-16T10:17:37;101642.25;;;14.59;29.89
62694;BME280;48759;52.544;13.418;2023-03-16T10:20:06;101630.56;;;14.96;29.10
62694;BME280;48759;52.544;13.418;2023-03-16T10:22:36;101635.88;;;14.78;28.76
62694;BME280;48759;52.544;13.418;2023-03-16T10:25:07;101644.00;;;13.58;29.77
62694;BME280;48759;52.544;13.418;2023-03-16T10:27:40;101646.88;;;13.77;29.09
62694;BME280;48759;52.544;13.418;2023-03-16T10:30:18;101637.25;;;14.34;27.97
62694;BME280;48759;52.544;13.418;2023-03-16T10:32:46;101628.81;;;15.21;27.20
62694;BME280;48759;52.544;13.418;2023-03-16T10:35:21;101631.81;;;14.74;28.25
62694;BME280;48759;52.544;13.418;2023-03-16T10:37:52;101630.56;;;14.57;28.64
62694;BME280;48759;52.544;13.418;2023-03-16T10:40:18;101632.41;;;13.82;29.14
62694;BME280;48759;52.544;13.418;2023-03-16T10:42:47;101633.38;;;14.09;28.64
62694;BME280;48759;52.544;13.418;2023-03-16T10:45:28;101624.56;;;14.60;27.86
62694;BME280;48759;52.544;13.418;2023-03-16T10:48:05;101632.38;;;14.36;28.28
62694;BME280;48759;52.544;13.418;2023-03-16T10:50:32;101622.44;;;14.48;27.85
62694;BME280;48759;52.544;13.418;2023-03-16T10:52:59;101630.13;;;15.39;27.63
62694;BME280;48759;52.544;13.418;2023-03-16T10:55:28;101621.81;;;14.92;27.06
62694;BME280;48759;52.544;13.418;2023-03-16T10:57:58;101630.47;;;15.75;26.90
62694;BME280;48759;52.544;13.418;2023-03-16T11:00:27;101629.03;;;16.04;25.85
62694;BME280;48759;52.544;13.418;2023-03-16T11:02:57;101629.44;;;15.30;26.98
62694;BME280;48759;52.544;13.418;2023-03-16T11:05:26;101629.59;;;15.68;27.08
62694;BME280;48759;52.544;13.418;2023-03-16T11:07:58;101620.03;;;16.08;26.23
62694;BME280;48759;52.544;13.418;2023-03-16T11:10:29;101624.53;;;16.10;26.72
62694;BME280;48759;52.544;13.418;2023-03-16T11:13:11;101620.25;;;16.14;26.79
62694;BME280;48759;52.544;13.418;2023-03-16T11:15:44;101618.31;;;16.21;26.85
62694;BME280;48759;52.544;13.418;2023-03-16T11:18:22;101618.06;;;15.71;26.85
62694;BME280;48759;52.544;13.418;2023-03-16T11:20:52;101617.88;;;15.66;27.00
62694;BME280;48759;52.544;13.418;2023-03-16T11:23:24;101606.75;;;16.24;25.76
62694;BME280;48759;52.544;13.418;2023-03-16T11:25:57;101602.75;;;16.76;25.21
62694;BME280;48759;52.544;13.418;2023-03-16T11:28:34;101608.28;;;16.51;26.02
62694;BME280;48759;52.544;13.418;2023-03-16T11:31:11;101606.69;;;17.36;25.07
62694;BME280;48759;52.544;13.418;2023-03-16T11:33:39;101611.47;;;16.79;26.77
62694;BME280;48759;52.544;13.418;2023-03-16T11:36:16;101610.06;;;17.63;26.11
62694;BME280;48759;52.544;13.418;2023-03-16T11:38:50;101601.38;;;17.10;26.24
62694;BME280;48759;52.544;13.418;2023-03-16T11:41:24;101604.69;;;17.43;25.20
62694;BME280;48759;52.544;13.418;2023-03-16T11:43:56;101601.94;;;17.80;24.55
62694;BME280;48759;52.544;13.418;2023-03-16T11:46:30;101589.78;;;18.22;24.63
62694;BME280;48759;52.544;13.418;2023-03-16T11:49:13;101586.06;;;17.99;24.76
62694;BME280;48759;52.544;13.418;2023-03-16T11:51:47;101596.41;;;17.73;25.30
62694;BME280;48759;52.544;13.418;2023-03-16T11:54:32;101587.19;;;18.81;24.49
62694;BME280;48759;52.544;13.418;2023-03-16T11:57:09;101579.75;;;18.63;24.72
62694;BME280;48759;52.544;13.418;2023-03-16T11:59:56;101579.56;;;18.46;24.54
62694;BME280;48759;52.544;13.418;2023-03-16T12:02:38;101575.66;;;18.65;24.57
62694;BME280;48759;52.544;13.418;2023-03-16T12:05:33;101577.31;;;18.55;24.59
62694;BME280;48759;52.544;13.418;2023-03-16T12:08:11;101569.75;;;18.14;24.88
62694;BME280;48759;52.544;13.418;2023-03-16T12:10:47;101565.75;;;18.40;25.05
62694;BME280;48759;52.544;13.418;2023-03-16T12:13:29;101566.09;;;18.43;24.86
62694;BME280;48759;52.544;13.418;2023-03-16T12:16:04;101560.03;;;19.11;24.13
62694;BME280;48759;52.544;13.418;2023-03-16T12:18:39;101564.91;;;19.27;24.82
62694;BME280;48759;52.544;13.418;2023-03-16T12:21:12;101553.34;;;18.65;23.74
62694;BME280;48759;52.544;13.418;2023-03-16T12:23:42;101560.00;;;17.56;23.98
62694;BME280;48759;52.544;13.418;2023-03-16T12:26:15;101552.53;;;18.47;22.76
62694;BME280;48759;52.544;13.418;2023-03-16T12:28:43;101559.66;;;19.07;22.46
62694;BME280;48759;52.544;13.418;2023-03-16T12:31:14;101553.00;;;19.08;22.42
62694;BME280;48759;52.544;13.418;2023-03-16T12:34:00;101554.91;;;18.50;22.08
62694;BME280;48759;52.544;13.418;2023-03-16T12:36:50;101541.94;;;18.67;21.40
62694;BME280;48759;52.544;13.418;2023-03-16T12:39:27;101533.47;;;18.85;21.85
62694;BME280;48759;52.544;13.418;2023-03-16T12:42:05;101538.75;;;18.52;23.00
62694;BME280;48759;52.544;13.418;2023-03-16T12:44:43;101536.25;;;19.32;23.09
62694;BME280;48759;52.544;13.418;2023-03-16T12:47:21;101525.69;;;19.22;23.17
62694;BME280;48759;52.544;13.418;2023-03-16T12:49:54;101532.03;;;19.69;23.27
62694;BME280;48759;52.544;13.418;2023-03-16T12:52:21;101536.31;;;19.60;23.30